createdAt,value
2022-10-11T00:00:39.434Z,101125.75
2022-10-11T00:03:07.113Z,101130.41
2022-10-11T00:05:35.741Z,101136.53
2022-10-11T00:08:05.612Z,101139.66
2022-10-11T00:10:35.373Z,101136.69
2022-10-11T00:13:03.179Z,101135.47
2022-10-11T00:15:31.199Z,101142.34
2022-10-11T00:18:02.118Z,101140.25
2022-10-11T00:20:34.165Z,101143.78
2022-10-11T00:23:01.348Z,101146.09
2022-10-11T00:25:34.011Z,101138.97
2022-10-11T00:28:03.589Z,101142.00
2022-10-11T00:30:31.575Z,101146.75
2022-10-11T00:32:58.840Z,101137.25
2022-10-11T00:35:26.748Z,101129.53
2022-10-11T00:37:56.945Z,101135.06
2022-10-11T00:40:26.518Z,101142.00
2022-10-11T00:42:53.656Z,101149.19
2022-10-11T00:45:26.851Z,101144.38
2022-10-11T00:47:55.402Z,101144.72
2022-10-11T00:50:28.110Z,101151.56
2022-10-11T00:53:01.757Z,101152.94
2022-10-11T00:55:33.735Z,101156.31
2022-10-11T00:58:01.082Z,101160.56
2022-10-11T01:00:28.257Z,101163.06
2022-10-11T01:02:55.773Z,101160.16
2022-10-11T01:05:29.708Z,101162.69
2022-10-11T01:08:02.282Z,101171.31
2022-10-11T01:10:29.884Z,101169.88
2022-10-11T01:13:40.757Z,101175.84
2022-10-11T01:16:35.463Z,101174.38
2022-10-11T01:19:33.422Z,101177.22
2022-10-11T01:22:33.850Z,101180.44
2022-10-11T01:25:31.002Z,101172.38
2022-10-11T01:28:23.020Z,101182.91
2022-10-11T01:30:51.685Z,101182.47
2022-10-11T01:33:22.888Z,101183.66
2022-10-11T01:36:27.946Z,101183.25
2022-10-11T01:39:36.813Z,101178.16
2022-10-11T01:42:09.930Z,101188.41
2022-10-11T01:44:39.160Z,101195.47
2022-10-11T01:47:08.645Z,101197.41
2022-10-11T01:49:35.913Z,101190.53
2022-10-11T01:52:06.998Z,101194.94
2022-10-11T01:55:10.642Z,101197.84
2022-10-11T01:58:04.350Z,101196.66
2022-10-11T02:00:51.850Z,101208.66
2022-10-11T02:03:24.629Z,101214.25
2022-10-11T02:06:04.419Z,101207.97
2022-10-11T02:08:53.074Z,101210.84
2022-10-11T02:11:44.445Z,101214.75
2022-10-11T02:14:27.323Z,101212.31
2022-10-11T02:17:12.198Z,101212.59
2022-10-11T02:19:46.059Z,101212.75
2022-10-11T02:22:27.984Z,101217.72
2022-10-11T02:25:02.180Z,101215.72
2022-10-11T02:27:33.506Z,101220.84
2022-10-11T02:30:04.477Z,101231.81
2022-10-11T02:32:33.642Z,101232.84
2022-10-11T02:35:02.623Z,101239.03
2022-10-11T02:37:54.006Z,101239.41
2022-10-11T02:40:35.313Z,101246.69
2022-10-11T02:43:28.555Z,101244.16
2022-10-11T02:46:03.396Z,101248.09
2022-10-11T02:48:32.374Z,101250.72
2022-10-11T02:51:02.428Z,101250.31
2022-10-11T02:53:30.023Z,101251.50
2022-10-11T02:55:57.512Z,101264.59
2022-10-11T02:58:25.553Z,101267.69
2022-10-11T03:00:52.809Z,101272.59
2022-10-11T03:03:20.150Z,101263.38
2022-10-11T03:05:47.323Z,101280.19
2022-10-11T03:08:16.414Z,101275.53
2022-10-11T03:10:44.185Z,101286.34
2022-10-11T03:13:15.975Z,101283.75
2022-10-11T03:16:01.925Z,101289.72
2022-10-11T03:18:35.283Z,101293.53
2022-10-11T03:21:02.272Z,101294.94
2022-10-11T03:23:29.400Z,101294.94
2022-10-11T03:25:56.742Z,101300.75
2022-10-11T03:28:26.050Z,101298.22
2022-10-11T03:30:53.497Z,101305.84
2022-10-11T03:33:20.639Z,101308.34
2022-10-11T03:35:51.080Z,101314.09
2022-10-11T03:38:22.606Z,101318.38
2022-10-11T03:40:51.928Z,101319.22
2022-10-11T03:43:19.214Z,101324.16
2022-10-11T03:45:46.725Z,101332.94
2022-10-11T03:48:13.905Z,101324.78
2022-10-11T03:50:43.789Z,101339.38
2022-10-11T03:53:13.423Z,101334.97
2022-10-11T03:55:41.464Z,101344.13
2022-10-11T03:58:09.309Z,101346.88
2022-10-11T04:00:37.536Z,101338.31
2022-10-11T04:03:04.813Z,101350.66
2022-10-11T04:05:32.272Z,101351.41
2022-10-11T04:07:59.662Z,101348.94
2022-10-11T04:10:26.867Z,101354.53
2022-10-11T04:12:56.518Z,101360.06
2022-10-11T04:15:23.814Z,101357.81
2022-10-11T04:17:50.908Z,101360.31
2022-10-11T04:20:18.064Z,101366.75
2022-10-11T04:22:45.176Z,101366.09
2022-10-11T04:25:12.240Z,101368.31
2022-10-11T04:27:39.666Z,101373.56
2022-10-11T04:30:08.094Z,101380.66
2022-10-11T04:32:37.630Z,101387.50
2022-10-11T04:35:05.509Z,101386.13
2022-10-11T04:37:35.921Z,101384.41
2022-10-11T04:40:04.324Z,101394.38
2022-10-11T04:42:31.472Z,101397.66
2022-10-11T04:45:01.132Z,101400.50
2022-10-11T04:47:28.283Z,101406.78
2022-10-11T04:49:57.757Z,101410.97
2022-10-11T04:52:26.033Z,101403.88
2022-10-11T04:54:53.360Z,101411.22
2022-10-11T04:57:21.971Z,101410.25
2022-10-11T04:59:50.319Z,101411.69
2022-10-11T05:02:17.968Z,101413.38
2022-10-11T05:04:45.235Z,101419.97
2022-10-11T05:07:12.452Z,101428.97
2022-10-11T05:09:39.546Z,101436.91
2022-10-11T05:12:06.801Z,101436.22
2022-10-11T05:14:34.416Z,101443.19
2022-10-11T05:17:01.500Z,101450.13
2022-10-11T05:19:28.793Z,101456.41
2022-10-11T05:21:56.072Z,101463.03
2022-10-11T05:24:23.917Z,101462.06
2022-10-11T05:26:51.583Z,101468.34
2022-10-11T05:29:18.712Z,101474.31
2022-10-11T05:31:46.081Z,101483.88
2022-10-11T05:34:13.124Z,101493.16
2022-10-11T05:36:40.249Z,101495.00
2022-10-11T05:39:07.383Z,101492.34
2022-10-11T05:41:34.489Z,101496.44
2022-10-11T05:44:01.576Z,101506.09
2022-10-11T05:46:28.896Z,101511.06
2022-10-11T05:48:58.233Z,101514.34
2022-10-11T05:51:25.330Z,101513.16
2022-10-11T05:53:52.778Z,101518.00
2022-10-11T05:56:26.602Z,101529.44
2022-10-11T05:58:57.510Z,101531.16
2022-10-11T06:01:28.220Z,101537.31
2022-10-11T06:03:57.831Z,101541.06
2022-10-11T06:06:24.998Z,101547.03
2022-10-11T06:08:52.345Z,101549.00
2022-10-11T06:11:29.112Z,101557.78
2022-10-11T06:13:58.286Z,101568.31
2022-10-11T06:16:25.989Z,101573.91
2022-10-11T06:18:55.221Z,101577.63
2022-10-11T06:21:23.338Z,101584.19
2022-10-11T06:24:01.920Z,101580.34
2022-10-11T06:26:30.108Z,101579.69
2022-10-11T06:28:57.605Z,101585.91
2022-10-11T06:31:25.075Z,101586.63
2022-10-11T06:33:52.297Z,101593.28
2022-10-11T06:36:19.731Z,101596.28
2022-10-11T06:38:46.978Z,101602.69
2022-10-11T06:41:21.068Z,101604.47
2022-10-11T06:43:49.864Z,101614.34
2022-10-11T06:46:19.600Z,101608.66
2022-10-11T06:48:48.468Z,101616.34
2022-10-11T06:51:19.966Z,101624.47
2022-10-11T06:53:58.311Z,101623.47
2022-10-11T06:56:31.096Z,101621.16
2022-10-11T06:58:59.741Z,101619.41
2022-10-11T07:01:27.636Z,101626.81
2022-10-11T07:03:57.698Z,101631.41
2022-10-11T07:06:28.326Z,101629.94
2022-10-11T07:08:55.781Z,101637.47
2022-10-11T07:11:27.350Z,101644.38
2022-10-11T07:13:58.157Z,101643.44
2022-10-11T07:16:26.325Z,101649.25
2022-10-11T07:19:00.482Z,101647.63
2022-10-11T07:21:30.324Z,101655.22
2022-10-11T07:23:57.717Z,101659.16
2022-10-11T07:26:27.524Z,101651.69
2022-10-11T07:28:54.760Z,101663.63
2022-10-11T07:31:25.518Z,101666.63
2022-10-11T07:33:52.877Z,101676.47
2022-10-11T07:36:23.307Z,101677.81
2022-10-11T07:38:50.723Z,101682.88
2022-10-11T07:41:18.237Z,101688.16
2022-10-11T07:43:47.819Z,101699.03
2022-10-11T07:46:16.108Z,101696.81
2022-10-11T07:48:43.216Z,101695.06
2022-10-11T07:51:15.781Z,101703.38
2022-10-11T07:53:55.755Z,101701.94
2022-10-11T07:56:28.682Z,101712.56
2022-10-11T07:59:01.667Z,101705.56
2022-10-11T08:01:31.994Z,101727.53
2022-10-11T08:03:59.861Z,101723.97
2022-10-11T08:06:33.654Z,101726.50
2022-10-11T08:09:01.757Z,101729.31
2022-10-11T08:11:36.430Z,101727.31
2022-10-11T08:14:08.693Z,101738.72
2022-10-11T08:16:38.998Z,101734.38
2022-10-11T08:19:07.432Z,101736.41
2022-10-11T08:21:34.921Z,101736.78
2022-10-11T08:24:06.999Z,101730.69
2022-10-11T08:26:37.472Z,101742.03
2022-10-11T08:29:05.341Z,101740.75
2022-10-11T08:31:34.590Z,101745.84
2022-10-11T08:34:01.704Z,101737.09
2022-10-11T08:36:28.744Z,101736.41
2022-10-11T08:38:55.815Z,101729.63
2022-10-11T08:41:49.950Z,101761.47
2022-10-11T08:47:33.366Z,101759.97
2022-10-11T08:50:01.182Z,101756.66
2022-10-11T08:52:46.813Z,101759.47
2022-10-11T08:55:15.386Z,101767.94
2022-10-11T08:57:53.263Z,101772.53
2022-10-11T09:00:21.726Z,101764.63
2022-10-11T09:03:09.355Z,101769.91
2022-10-11T09:06:01.040Z,101773.28
2022-10-11T09:08:44.431Z,101778.47
2022-10-11T09:11:39.773Z,101781.38
2022-10-11T09:14:43.669Z,101781.75
2022-10-11T09:17:46.814Z,101776.44
2022-10-11T09:20:52.401Z,101780.69
2022-10-11T09:23:43.470Z,101773.91
2022-10-11T09:26:31.909Z,101781.59
2022-10-11T09:29:18.164Z,101784.88
2022-10-11T09:31:55.011Z,101783.66
2022-10-11T09:34:26.868Z,101794.75
2022-10-11T09:37:38.155Z,101794.31
2022-10-11T09:40:08.464Z,101790.03
2022-10-11T09:42:38.067Z,101795.56
2022-10-11T09:45:21.479Z,101793.22
2022-10-11T09:47:54.859Z,101791.81
2022-10-11T09:50:30.674Z,101796.53
2022-10-11T09:53:04.891Z,101787.97
2022-10-11T09:55:45.251Z,101806.91
2022-10-11T09:58:35.489Z,101805.22
2022-10-11T10:01:10.146Z,101811.56
2022-10-11T10:03:42.988Z,101797.59
2022-10-11T10:06:33.638Z,101811.28
2022-10-11T10:09:30.522Z,101807.97
2022-10-11T10:11:58.126Z,101820.94
2022-10-11T10:14:30.031Z,101807.56
2022-10-11T10:17:08.706Z,101805.63
2022-10-11T10:20:05.516Z,101809.97
2022-10-11T10:22:35.763Z,101816.75
2022-10-11T10:25:08.146Z,101818.41
2022-10-11T10:27:35.701Z,101819.78
2022-10-11T10:30:15.951Z,101816.84
2022-10-11T10:33:05.880Z,101828.66
2022-10-11T10:35:49.328Z,101822.59
2022-10-11T10:38:41.359Z,101830.72
2022-10-11T10:41:13.230Z,101831.16
2022-10-11T10:43:43.752Z,101835.84
2022-10-11T10:46:39.660Z,101838.34
2022-10-11T10:49:53.056Z,101837.16
2022-10-11T10:52:49.463Z,101838.72
2022-10-11T10:55:42.271Z,101846.13
2022-10-11T10:58:27.245Z,101847.00
2022-10-11T11:01:48.875Z,101847.84
2022-10-11T11:04:33.557Z,101852.72
2022-10-11T11:07:36.666Z,101858.44
2022-10-11T11:10:48.426Z,101841.91
2022-10-11T11:13:22.701Z,101843.66
2022-10-11T11:15:50.416Z,101839.16
2022-10-11T11:18:30.352Z,101852.78
2022-10-11T11:21:26.812Z,101846.19
2022-10-11T11:24:29.755Z,101854.94
2022-10-11T11:27:02.878Z,101859.03
2022-10-11T11:29:53.148Z,101848.19
2022-10-11T11:33:02.442Z,101848.44
2022-10-11T11:35:44.050Z,101853.56
2022-10-11T11:38:37.516Z,101840.19
2022-10-11T11:41:11.591Z,101854.38
2022-10-11T11:43:46.118Z,101848.47
2022-10-11T11:46:27.709Z,101855.63
2022-10-11T11:49:02.895Z,101846.53
2022-10-11T11:51:41.553Z,101848.44
2022-10-11T11:54:37.233Z,101848.50
2022-10-11T11:57:41.572Z,101855.19
2022-10-11T12:00:23.498Z,101841.19
2022-10-11T12:03:01.631Z,101851.94
2022-10-11T12:05:37.609Z,101835.38
2022-10-11T12:08:25.448Z,101842.91
2022-10-11T12:11:02.453Z,101842.34
2022-10-11T12:13:37.645Z,101851.34
2022-10-11T12:16:04.668Z,101839.28
2022-10-11T12:18:38.146Z,101843.41
2022-10-11T12:21:44.386Z,101851.19
2022-10-11T12:24:15.389Z,101845.38
2022-10-11T12:26:45.506Z,101833.56
2022-10-11T12:29:18.964Z,101840.16
2022-10-11T12:32:00.225Z,101838.66
2022-10-11T12:34:44.964Z,101839.13
2022-10-11T12:37:18.128Z,101833.63
2022-10-11T12:40:00.459Z,101849.88
2022-10-11T12:42:36.574Z,101849.63
2022-10-11T12:45:13.212Z,101854.28
2022-10-11T12:48:00.979Z,101855.56
2022-10-11T12:51:26.321Z,101856.53
2022-10-11T12:55:14.114Z,101850.50
2022-10-11T12:58:25.011Z,101855.19
2022-10-11T13:00:52.043Z,101857.44
2022-10-11T13:03:50.905Z,101856.34
2022-10-11T13:06:38.811Z,101850.78
2022-10-11T13:09:48.774Z,101850.53
2022-10-11T13:12:25.333Z,101860.56
2022-10-11T13:15:08.516Z,101854.97
2022-10-11T13:17:39.044Z,101862.69
2022-10-11T13:20:30.539Z,101854.94
2022-10-11T13:22:58.605Z,101854.38
2022-10-11T13:25:37.988Z,101871.00
2022-10-11T13:28:09.785Z,101858.50
2022-10-11T13:30:42.394Z,101854.31
2022-10-11T13:33:21.411Z,101863.63
2022-10-11T13:35:49.461Z,101868.66
2022-10-11T13:38:43.160Z,101862.91
2022-10-11T13:41:10.773Z,101857.09
2022-10-11T13:43:38.721Z,101860.69
2022-10-11T13:46:07.175Z,101866.34
2022-10-11T13:48:41.065Z,101863.22
2022-10-11T13:51:38.364Z,101859.25
2022-10-11T13:54:13.534Z,101861.97
2022-10-11T13:56:49.808Z,101856.25
2022-10-11T13:59:23.986Z,101864.81
2022-10-11T14:02:04.487Z,101858.81
2022-10-11T14:04:40.909Z,101863.03
2022-10-11T14:07:35.751Z,101862.31
2022-10-11T14:10:05.634Z,101862.56
2022-10-11T14:12:39.733Z,101859.47
2022-10-11T14:15:23.737Z,101860.28
2022-10-11T14:17:51.548Z,101862.78
2022-10-11T14:20:33.738Z,101857.31
2022-10-11T14:23:02.868Z,101856.31
2022-10-11T14:25:33.353Z,101860.69
2022-10-11T14:28:00.723Z,101864.88
2022-10-11T14:30:28.589Z,101868.63
2022-10-11T14:32:59.641Z,101867.06
2022-10-11T14:35:34.482Z,101869.16
2022-10-11T14:38:01.608Z,101868.97
2022-10-11T14:40:31.871Z,101868.28
2022-10-11T14:42:59.035Z,101872.66
2022-10-11T14:45:26.286Z,101867.78
2022-10-11T14:47:53.581Z,101872.34
2022-10-11T14:50:51.860Z,101868.25
2022-10-11T14:53:19.238Z,101876.84
2022-10-11T14:55:48.441Z,101880.28
2022-10-11T14:58:17.386Z,101876.09
2022-10-11T15:00:45.691Z,101876.00
2022-10-11T15:03:14.878Z,101883.22
2022-10-11T15:05:44.218Z,101875.31
2022-10-11T15:08:14.892Z,101876.41
2022-10-11T15:10:42.220Z,101882.31
2022-10-11T15:13:11.812Z,101885.22
2022-10-11T15:15:41.426Z,101884.84
2022-10-11T15:18:13.455Z,101876.94
2022-10-11T15:20:46.056Z,101890.97
2022-10-11T15:23:13.925Z,101884.72
2022-10-11T15:25:42.638Z,101886.75
2022-10-11T15:28:30.117Z,101885.50
2022-10-11T15:30:57.758Z,101893.22
2022-10-11T15:33:28.320Z,101904.56
2022-10-11T15:35:55.562Z,101906.06
2022-10-11T15:38:25.896Z,101899.53
2022-10-11T15:40:54.077Z,101898.69
2022-10-11T15:43:24.776Z,101902.63
2022-10-11T15:45:52.681Z,101915.53
2022-10-11T15:48:22.756Z,101917.56
2022-10-11T15:50:50.978Z,101909.81
2022-10-11T15:53:23.336Z,101920.25
2022-10-11T15:55:55.738Z,101920.09
2022-10-11T15:58:27.860Z,101920.09
2022-10-11T16:00:57.092Z,101920.25
2022-10-11T16:03:29.614Z,101928.16
2022-10-11T16:06:04.933Z,101931.22
2022-10-11T16:08:36.110Z,101936.97
2022-10-11T16:11:05.114Z,101930.19
2022-10-11T16:13:33.027Z,101945.09
2022-10-11T16:16:11.288Z,101937.06
2022-10-11T16:18:40.204Z,101948.19
2022-10-11T16:21:10.647Z,101951.66
2022-10-11T16:23:38.599Z,101944.28
2022-10-11T16:26:10.174Z,101952.25
2022-10-11T16:28:40.177Z,101949.53
2022-10-11T16:31:18.326Z,101950.19
2022-10-11T16:33:46.238Z,101952.91
2022-10-11T16:36:36.624Z,101948.34
2022-10-11T16:39:15.758Z,101946.47
2022-10-11T16:41:46.278Z,101953.78
2022-10-11T16:44:25.259Z,101959.75
2022-10-11T16:46:52.670Z,101956.91
2022-10-11T16:49:24.222Z,101964.34
2022-10-11T16:51:59.006Z,101965.16
2022-10-11T16:54:30.599Z,101961.34
2022-10-11T16:56:59.598Z,101961.94
2022-10-11T16:59:27.170Z,101966.81
2022-10-11T17:01:55.160Z,101967.75
2022-10-11T17:04:22.416Z,101965.84
2022-10-11T17:06:49.859Z,101967.53
2022-10-11T17:09:19.454Z,101966.56
2022-10-11T17:11:46.588Z,101970.53
2022-10-11T17:14:14.239Z,101972.84
2022-10-11T17:16:41.450Z,101975.16
2022-10-11T17:19:15.064Z,101972.19
2022-10-11T17:21:44.730Z,101968.03
2022-10-11T17:24:11.870Z,101968.41
2022-10-11T17:26:39.293Z,101979.34
2022-10-11T17:29:06.411Z,101975.81
2022-10-11T17:31:33.538Z,101975.19
2022-10-11T17:34:01.430Z,101979.63
2022-10-11T17:36:36.265Z,101980.44
2022-10-11T17:39:08.798Z,101982.09
2022-10-11T17:41:36.663Z,101976.09
2022-10-11T17:44:06.638Z,101983.06
2022-10-11T17:46:34.247Z,101985.38
2022-10-11T17:49:07.650Z,101985.38
2022-10-11T17:51:36.952Z,101987.69
2022-10-11T17:54:06.165Z,101985.84
2022-10-11T17:56:37.657Z,101989.19
2022-10-11T17:59:05.692Z,101987.31
2022-10-11T18:01:32.884Z,101992.13
2022-10-11T18:04:04.664Z,101985.69
2022-10-11T18:06:38.515Z,101994.09
2022-10-11T18:09:05.878Z,101991.94
2022-10-11T18:11:33.574Z,101989.25
2022-10-11T18:14:00.999Z,101986.75
2022-10-11T18:16:30.536Z,101988.56
2022-10-11T18:18:58.988Z,101993.50
2022-10-11T18:21:34.352Z,101992.16
2022-10-11T18:24:11.003Z,102005.72
2022-10-11T18:26:38.585Z,102006.06
2022-10-11T18:29:11.005Z,102002.91
2022-10-11T18:31:41.295Z,102007.72
2022-10-11T18:34:10.942Z,102005.28
2022-10-11T18:36:39.088Z,102008.22
2022-10-11T18:39:09.273Z,102002.81
2022-10-11T18:41:39.414Z,102008.97
2022-10-11T18:44:09.156Z,102015.03
2022-10-11T18:46:38.672Z,102018.63
2022-10-11T18:49:08.718Z,102018.31
2022-10-11T18:51:39.444Z,102014.22
2022-10-11T18:54:09.107Z,102016.66
2022-10-11T18:56:37.188Z,102017.41
2022-10-11T18:59:05.436Z,102020.38
2022-10-11T19:01:39.634Z,102023.16
2022-10-11T19:04:09.434Z,102017.88
2022-10-11T19:06:43.406Z,102020.53
2022-10-11T19:09:17.783Z,102025.44
2022-10-11T19:11:49.524Z,102026.66
2022-10-11T19:14:25.742Z,102026.06
2022-10-11T19:16:53.926Z,102037.06
2022-10-11T19:19:26.175Z,102030.78
2022-10-11T19:21:54.033Z,102028.72
2022-10-11T19:24:24.320Z,102023.97
2022-10-11T19:26:53.168Z,102028.63
2022-10-11T19:29:24.179Z,102033.81
2022-10-11T19:31:54.888Z,102035.50
2022-10-11T19:34:28.710Z,102038.38
2022-10-11T19:36:56.890Z,102036.56
2022-10-11T19:39:25.609Z,102030.88
2022-10-11T19:41:52.994Z,102038.91
2022-10-11T19:44:20.483Z,102032.16
2022-10-11T19:46:52.438Z,102034.97
2022-10-11T19:49:25.045Z,102038.88
2022-10-11T19:51:53.987Z,102038.34
2022-10-11T19:54:21.179Z,102037.25
2022-10-11T19:56:48.824Z,102045.38
2022-10-11T19:59:16.814Z,102040.34
2022-10-11T20:01:49.410Z,102043.56
2022-10-11T20:04:47.135Z,102042.84
2022-10-11T20:07:06.871Z,102050.94
2022-10-11T20:09:34.055Z,102043.22
2022-10-11T20:12:03.548Z,102044.78
2022-10-11T20:14:30.671Z,102037.41
2022-10-11T20:16:57.897Z,102042.94
2022-10-11T20:19:31.120Z,102041.06
2022-10-11T20:22:00.193Z,102041.59
2022-10-11T20:24:32.450Z,102043.59
2022-10-11T20:27:04.688Z,102036.50
2022-10-11T20:29:31.905Z,102046.84
2022-10-11T20:31:59.120Z,102047.06
2022-10-11T20:34:27.696Z,102042.22
2022-10-11T20:36:54.933Z,102044.44
2022-10-11T20:39:22.109Z,102041.16
2022-10-11T20:41:49.195Z,102042.00
2022-10-11T20:44:18.698Z,102040.03
2022-10-11T20:46:48.365Z,102034.00
2022-10-11T20:49:15.739Z,102046.22
2022-10-11T20:51:42.923Z,102042.88
2022-10-11T20:54:11.301Z,102043.03
2022-10-11T20:56:39.270Z,102042.88
2022-10-11T20:59:07.010Z,102042.31
2022-10-11T21:04:23.390Z,102043.84
2022-10-11T21:06:50.531Z,102048.16
2022-10-11T21:09:17.979Z,102041.06
2022-10-11T21:11:46.016Z,102041.06
2022-10-11T21:14:13.253Z,102043.69
2022-10-11T21:16:40.431Z,102042.88
2022-10-11T21:19:07.659Z,102044.78
2022-10-11T21:21:35.051Z,102043.56
2022-10-11T21:24:05.593Z,102052.75
2022-10-11T21:26:32.963Z,102054.13
2022-10-11T21:29:00.191Z,102051.66
2022-10-11T21:31:34.250Z,102055.25
2022-10-11T21:34:05.144Z,102046.38
2022-10-11T21:36:32.311Z,102056.38
2022-10-11T21:38:59.484Z,102059.56
2022-10-11T21:41:30.149Z,102051.78
2022-10-11T21:43:58.165Z,102051.63
2022-10-11T21:46:54.239Z,102052.88
2022-10-11T21:49:17.648Z,102054.22
2022-10-11T21:51:45.521Z,102055.47
2022-10-11T21:54:12.726Z,102050.31
2022-10-11T21:56:39.966Z,102046.84
2022-10-11T21:59:11.089Z,102056.31
2022-10-11T22:01:40.437Z,102053.31
2022-10-11T22:04:08.081Z,102050.25
2022-10-11T22:06:36.180Z,102049.97
2022-10-11T22:09:04.558Z,102048.03
2022-10-11T22:11:32.226Z,102048.28
2022-10-11T22:13:59.406Z,102044.97
2022-10-11T22:16:28.949Z,102049.72
2022-10-11T22:18:56.176Z,102056.34
2022-10-11T22:21:24.032Z,102048.84
2022-10-11T22:23:53.657Z,102051.25
2022-10-11T22:26:25.748Z,102051.25
2022-10-11T22:28:53.560Z,102046.06
2022-10-11T22:31:21.516Z,102054.97
2022-10-11T22:33:52.754Z,102056.38
2022-10-11T22:36:20.005Z,102055.81
2022-10-11T22:38:47.562Z,102052.63
2022-10-11T22:41:14.684Z,102061.78
2022-10-11T22:43:41.879Z,102059.66
2022-10-11T22:46:09.862Z,102052.19
2022-10-11T22:48:37.424Z,102052.63
2022-10-11T22:51:06.919Z,102051.09
2022-10-11T22:53:34.634Z,102057.09
2022-10-11T22:56:04.257Z,102054.19
2022-10-11T22:58:31.508Z,102057.50
2022-10-11T23:01:05.621Z,102052.59
2022-10-11T23:03:32.857Z,102058.47
2022-10-11T23:06:00.135Z,102058.50
2022-10-11T23:08:27.330Z,102049.34
2022-10-11T23:10:54.469Z,102053.16
2022-10-11T23:13:21.706Z,102064.00
2022-10-11T23:15:48.813Z,102061.41
2022-10-11T23:18:16.970Z,102059.78
2022-10-11T23:20:44.740Z,102054.09
2022-10-11T23:23:11.878Z,102064.91
2022-10-11T23:25:39.689Z,102051.22
2022-10-11T23:28:06.798Z,102058.69
2022-10-11T23:30:35.303Z,102061.50
2022-10-11T23:33:03.494Z,102069.06
2022-10-11T23:35:30.674Z,102063.91
2022-10-11T23:37:57.721Z,102070.59
2022-10-11T23:40:24.876Z,102067.56
2022-10-11T23:42:51.960Z,102071.00
2022-10-11T23:45:19.089Z,102068.09
2022-10-11T23:47:46.147Z,102072.50
2022-10-11T23:50:13.266Z,102072.53
2022-10-11T23:52:42.749Z,102077.22
2022-10-11T23:55:09.976Z,102080.84
2022-10-11T23:57:37.535Z,102082.59
